Time;durP1;ratioP1;P1;durP2;ratioP2;P2;SDS_P1;SDS_P2;PMS_P1;PMS_P2;Temp;Humidity;BMP_temperature;BMP_pressure;BME280_temperature;BME280_humidity;BME280_pressure;Samples;Min_cycle;Max_cycle;Signal;HPM_P1;HPM_P2
2022/01/12 00:00:10;;;;;;;129.68;50.55;;;0.20;99.90;;;;;;5022645;28;20033;-59
2022/01/12 00:02:45;;;;;;;131.02;51.15;;;0.20;99.90;;;;;;5033799;28;20053;-60
2022/01/12 00:05:23;;;;;;;194.68;71.03;;;0.20;99.90;;;;;;5034036;28;20097;-60
2022/01/12 00:07:57;;;;;;;176.88;63.90;;;0.20;99.90;;;;;;5033782;28;20034;-59
2022/01/12 00:10:34;;;;;;;261.42;93.10;;;0.10;99.90;;;;;;5034012;28;20037;-59
2022/01/12 00:13:14;;;;;;;319.83;113.93;;;0.20;99.90;;;;;;5041785;28;20163;-59
2022/01/12 00:16:07;;;;;;;296.55;112.30;;;0.10;99.90;;;;;;5053848;28;20108;-59
2022/01/12 00:18:34;;;;;;;183.38;70.65;;;0.10;99.90;;;;;;5063854;28;20051;-60
2022/01/12 00:21:02;;;;;;;94.15;39.28;;;0.20;99.90;;;;;;5073644;28;20126;-59
2022/01/12 00:23:40;;;;;;;59.38;27.80;;;0.20;99.90;;;;;;5073454;28;20480;-59
2022/01/12 00:26:40;;;;;;;68.65;32.67;;;0.30;99.90;;;;;;5073742;28;20063;-59
2022/01/12 00:34:47;;;;;;;88.32;40.38;;;0.20;99.90;;;;;;5055736;28;20036;-59
2022/01/12 00:37:20;;;;;;;75.70;35.40;;;0.20;99.90;;;;;;5057117;28;20029;-59
2022/01/12 00:39:47;;;;;;;80.93;39.50;;;0.20;99.90;;;;;;5056948;28;20021;-59
2022/01/12 00:42:23;;;;;;;75.85;35.38;;;0.20;99.90;;;;;;5038939;28;20029;-60
2022/01/12 00:44:53;;;;;;;64.72;31.45;;;0.20;99.90;;;;;;5055740;28;20087;-59
2022/01/12 00:47:32;;;;;;;49.33;23.70;;;0.20;99.90;;;;;;5056772;28;20520;-59
2022/01/12 00:50:03;;;;;;;42.33;22.65;;;0.10;99.90;;;;;;5056949;28;20064;-59
2022/01/12 00:52:37;;;;;;;40.70;20.13;;;0.10;99.90;;;;;;5056923;28;20029;-59
2022/01/12 00:55:13;;;;;;;38.28;20.40;;;0.20;99.90;;;;;;5056722;28;20025;-59
2022/01/12 00:57:55;;;;;;;34.20;18.77;;;0.30;99.90;;;;;;5056559;28;20049;-60
2022/01/12 01:00:32;;;;;;;37.58;19.42;;;0.40;99.90;;;;;;5038563;28;20039;-59
2022/01/12 01:03:04;;;;;;;40.83;19.57;;;0.40;99.90;;;;;;5056408;28;20027;-59
2022/01/12 01:05:33;;;;;;;41.97;20.85;;;0.30;99.90;;;;;;5054878;28;20041;-59
2022/01/12 01:08:24;;;;;;;43.13;20.40;;;0.20;99.90;;;;;;5038360;28;20029;-59
2022/01/12 01:10:57;;;;;;;40.85;20.45;;;0.20;99.90;;;;;;5038360;28;20389;-59
2022/01/12 01:13:38;;;;;;;40.97;21.08;;;0.20;99.90;;;;;;5043945;28;20048;-59
2022/01/12 01:16:20;;;;;;;37.88;20.02;;;0.20;99.90;;;;;;5036528;28;20083;-59
2022/01/12 01:27:35;;;;;;;31.88;18.17;;;0.10;99.90;;;;;;5029782;28;20041;-59
2022/01/12 01:30:05;;;;;;;36.75;18.25;;;0.10;99.90;;;;;;5036186;28;20033;-59
2022/01/12 01:32:45;;;;;;;37.67;18.50;;;0.10;99.90;;;;;;5034737;28;20033;-60
2022/01/12 01:35:33;;;;;;;34.05;18.25;;;0.10;99.90;;;;;;5035984;28;20161;-59
2022/01/12 01:38:02;;;;;;;31.40;16.98;;;0.10;99.90;;;;;;5031650;28;20128;-59
2022/01/12 01:40:41;;;;;;;29.10;15.45;;;0.10;99.90;;;;;;5050689;28;20384;-59
2022/01/12 01:43:23;;;;;;;26.25;15.90;;;0.10;99.90;;;;;;5017824;28;20025;-60
2022/01/12 01:54:33;;;;;;;24.35;14.45;;;0.20;99.90;;;;;;5034232;28;20026;-59
2022/01/12 01:57:09;;;;;;;22.83;13.18;;;0.20;99.90;;;;;;5034001;28;20519;-59
2022/01/12 01:59:37;;;;;;;24.95;12.73;;;0.20;99.90;;;;;;5017425;28;20033;-59
2022/01/12 02:02:04;;;;;;;18.83;11.73;;;0.20;99.90;;;;;;5017661;28;20052;-60
2022/01/12 02:04:42;;;;;;;18.65;11.60;;;0.10;99.90;;;;;;5017529;28;20025;-59
2022/01/12 02:07:17;;;;;;;20.95;11.63;;;0.10;99.90;;;;;;5009490;28;20037;-59
2022/01/12 02:09:51;;;;;;;21.35;11.02;;;0.10;99.90;;;;;;5033510;28;20072;-59
2022/01/12 02:12:34;;;;;;;18.25;10.52;;;0.00;99.90;;;;;;5017297;28;20021;-59
2022/01/12 02:15:01;;;;;;;18.20;10.35;;;0.10;99.90;;;;;;5017485;28;20044;-59
2022/01/12 02:17:42;;;;;;;22.65;11.57;;;0.20;99.90;;;;;;5036542;28;20029;-59
2022/01/12 02:40:45;;;;;;;19.20;10.10;;;-0.30;99.90;;;;;;4970971;28;20057;-59
2022/01/12 02:43:27;;;;;;;17.13;9.80;;;-0.30;99.90;;;;;;4992874;28;20084;-59
2022/01/12 02:53:38;;;;;;;17.13;8.77;;;-0.30;99.90;;;;;;4976622;28;20516;-59
2022/01/12 02:54:19;;;;;;;20.53;10.43;;;-0.30;99.90;;;;;;5016863;28;20047;-59
2022/01/12 02:56:52;;;;;;;17.60;9.90;;;-0.30;99.90;;;;;;5035058;28;20116;-59
2022/01/12 02:59:20;;;;;;;15.73;9.52;;;-0.30;99.90;;;;;;5036766;28;20080;-59
2022/01/12 03:02:20;;;;;;;16.83;9.35;;;-0.30;99.90;;;;;;5036585;28;20036;-59
2022/01/12 03:05:22;;;;;;;16.13;9.23;;;-0.20;99.90;;;;;;5054286;28;20029;-59
2022/01/12 03:07:53;;;;;;;17.50;9.43;;;-0.30;99.90;;;;;;5036506;28;20086;-59
2022/01/12 03:10:21;;;;;;;17.17;9.65;;;-0.30;99.90;;;;;;5036678;28;20417;-59
2022/01/12 03:13:00;;;;;;;21.48;10.88;;;-0.40;99.90;;;;;;5036332;28;20036;-59
2022/01/12 03:15:30;;;;;;;18.00;9.65;;;-0.40;99.90;;;;;;5036214;28;20041;-59
2022/01/12 03:17:58;;;;;;;26.88;11.52;;;-0.40;99.90;;;;;;5059073;28;20025;-59
2022/01/12 03:20:28;;;;;;;16.65;9.45;;;-0.50;99.90;;;;;;5073081;28;20035;-59
2022/01/12 03:22:58;;;;;;;58.20;22.90;;;-0.50;99.90;;;;;;5055947;28;20043;-59
2022/01/12 03:25:33;;;;;;;18.88;9.57;;;-0.50;99.90;;;;;;5056271;28;20390;-59
2022/01/12 03:28:03;;;;;;;13.73;8.20;;;-0.50;99.90;;;;;;5056410;28;20599;-59
2022/01/12 03:30:41;;;;;;;17.77;8.52;;;-0.40;99.90;;;;;;5056215;28;20096;-59
2022/01/12 03:38:45;;;;;;;16.52;8.00;;;-0.50;99.90;;;;;;5054107;28;20108;-59
2022/01/12 03:41:15;;;;;;;18.15;8.52;;;-0.60;99.90;;;;;;5035964;28;20036;-59
2022/01/12 03:43:49;;;;;;;74.88;25.40;;;-0.60;99.90;;;;;;5052718;28;20151;-59
2022/01/12 03:46:35;;;;;;;13.77;7.53;;;-0.60;99.90;;;;;;5036047;28;20029;-59
2022/01/12 03:49:05;;;;;;;13.32;7.72;;;-0.50;99.90;;;;;;5054040;28;20114;-59
2022/01/12 03:51:39;;;;;;;13.02;7.88;;;-0.50;99.90;;;;;;5035800;28;20033;-59
2022/01/12 03:54:09;;;;;;;13.13;8.20;;;-0.60;99.90;;;;;;5052692;28;20186;-59
2022/01/12 03:56:40;;;;;;;15.00;8.68;;;-0.60;99.90;;;;;;5036080;28;20549;-59
2022/01/12 03:59:07;;;;;;;31.25;14.20;;;-0.60;99.90;;;;;;5053485;28;20134;-59
2022/01/12 04:01:36;;;;;;;29.73;12.27;;;-0.60;99.90;;;;;;5053670;28;20037;-59
2022/01/12 04:04:16;;;;;;;16.52;9.18;;;-0.50;99.90;;;;;;5053081;28;20055;-59
2022/01/12 04:09:29;;;;;;;17.05;9.45;;;-0.60;99.90;;;;;;5056106;28;20029;-59
2022/01/12 04:11:56;;;;;;;15.32;9.45;;;-0.50;99.90;;;;;;5039513;28;20036;-59
2022/01/12 04:14:24;;;;;;;16.50;9.35;;;-0.50;99.90;;;;;;5054022;28;20084;-59
2022/01/12 04:16:54;;;;;;;19.00;10.35;;;-0.60;99.90;;;;;;5019913;28;20034;-59
2022/01/12 04:19:24;;;;;;;21.73;11.18;;;-0.70;99.90;;;;;;5019798;28;20384;-59
2022/01/12 04:21:53;;;;;;;20.33;11.75;;;-0.60;99.90;;;;;;5019443;28;20048;-59
2022/01/12 04:24:24;;;;;;;17.48;10.00;;;-0.60;99.90;;;;;;5037553;28;20514;-59
2022/01/12 04:27:03;;;;;;;18.42;10.18;;;-0.60;99.90;;;;;;5018858;28;20064;-59
2022/01/12 04:29:33;;;;;;;25.50;13.30;;;-0.60;99.90;;;;;;5019491;28;20033;-59
2022/01/12 04:32:03;;;;;;;24.90;12.27;;;-0.60;99.90;;;;;;5035939;28;20064;-59
2022/01/12 04:34:36;;;;;;;21.50;10.50;;;-0.50;99.90;;;;;;5019183;28;20038;-59
2022/01/12 04:37:09;;;;;;;16.60;9.70;;;-0.50;99.90;;;;;;5037052;28;20037;-59
2022/01/12 04:39:45;;;;;;;24.88;11.73;;;-0.50;99.90;;;;;;5019173;28;20029;-59
2022/01/12 04:42:12;;;;;;;16.23;8.77;;;-0.50;99.90;;;;;;5036973;28;20033;-59
2022/01/12 04:44:47;;;;;;;14.65;9.00;;;-0.50;99.90;;;;;;5035634;28;20032;-59
2022/01/12 04:47:39;;;;;;;15.63;8.75;;;-0.60;99.90;;;;;;5036852;28;20021;-59
2022/01/12 04:50:04;;;;;;;16.25;9.15;;;-0.70;99.90;;;;;;5036770;28;20108;-59
2022/01/12 04:52:37;;;;;;;17.10;9.23;;;-0.70;99.90;;;;;;5019231;28;20056;-59
2022/01/12 04:55:13;;;;;;;15.85;8.73;;;-0.60;99.90;;;;;;5036820;28;20403;-59
2022/01/12 04:57:44;;;;;;;21.67;9.13;;;-0.70;99.90;;;;;;5035268;28;20049;-59
2022/01/12 05:00:22;;;;;;;22.20;9.52;;;-0.80;99.90;;;;;;5035546;28;20029;-59
2022/01/12 05:13:50;;;;;;;25.00;12.10;;;-0.80;99.90;;;;;;5035028;28;20029;-59
2022/01/12 05:16:22;;;;;;;21.95;11.48;;;-0.70;99.90;;;;;;5017519;28;20033;-59
2022/01/12 05:18:59;;;;;;;16.83;8.65;;;-0.70;99.90;;;;;;5030663;28;20032;-59
2022/01/12 05:21:30;;;;;;;21.65;9.75;;;-0.70;99.90;;;;;;5038140;28;20037;-59
2022/01/12 05:24:00;;;;;;;13.98;8.27;;;-0.70;99.90;;;;;;5056113;28;20021;-59
2022/01/12 05:26:40;;;;;;;19.08;9.50;;;-0.70;99.90;;;;;;5056148;28;20040;-59
2022/01/12 05:29:24;;;;;;;31.98;9.85;;;-0.80;99.90;;;;;;5056051;28;20029;-59
2022/01/12 05:32:16;;;;;;;;;;;-0.70;99.90;;;;;;5032285;28;20052;-59
2022/01/12 05:34:57;;;;;;;23.63;9.65;;;-0.70;99.90;;;;;;5034736;28;20307;-59
2022/01/12 05:37:27;;;;;;;15.25;7.45;;;-0.70;99.90;;;;;;5018048;28;20030;-59
2022/01/12 05:40:06;;;;;;;22.17;10.90;;;-0.60;99.90;;;;;;5017944;28;20479;-59
2022/01/12 05:42:34;;;;;;;19.10;9.15;;;-0.70;99.90;;;;;;5034243;28;20176;-59
2022/01/12 05:45:11;;;;;;;14.25;7.53;;;-0.70;99.90;;;;;;5035861;28;20108;-59
2022/01/12 05:50:30;;;;;;;14.15;7.15;;;-0.80;99.90;;;;;;5034448;28;20039;-59
2022/01/12 05:53:18;;;;;;;24.42;8.32;;;-0.80;99.90;;;;;;5017937;28;20482;-59
2022/01/12 05:55:53;;;;;;;10.95;7.07;;;-0.80;99.90;;;;;;5017483;28;20033;-59
2022/01/12 05:58:23;;;;;;;11.93;7.47;;;-0.80;99.90;;;;;;5030952;28;20052;-59
2022/01/12 06:00:54;;;;;;;14.07;7.10;;;-0.80;99.90;;;;;;5053972;28;20057;-59
2022/01/12 06:03:25;;;;;;;18.90;8.40;;;-0.80;99.90;;;;;;5037617;28;20029;-59
2022/01/12 06:05:55;;;;;;;20.83;9.65;;;-0.90;99.90;;;;;;5037612;28;20036;-59
2022/01/12 06:08:29;;;;;;;15.55;8.95;;;-1.00;99.90;;;;;;5037562;28;20060;-59
2022/01/12 06:11:06;;;;;;;29.73;13.45;;;-0.90;99.90;;;;;;5037201;28;20040;-59
2022/01/12 06:13:33;;;;;;;22.83;13.88;;;-0.90;99.90;;;;;;5055133;28;20040;-59
2022/01/12 06:16:09;;;;;;;15.18;7.75;;;-1.00;99.90;;;;;;5037008;28;20036;-59
2022/01/12 06:18:50;;;;;;;15.55;8.20;;;-1.00;99.90;;;;;;5047982;28;20028;-59
2022/01/12 06:21:17;;;;;;;16.75;9.98;;;-0.90;99.90;;;;;;5034205;28;20041;-59
2022/01/12 06:24:01;;;;;;;19.17;9.05;;;-0.90;99.90;;;;;;5031959;28;20063;-59
2022/01/12 06:26:28;;;;;;;19.00;8.95;;;-0.90;99.90;;;;;;5033378;28;20048;-59
2022/01/12 06:31:46;;;;;;;13.95;8.07;;;-0.90;99.90;;;;;;5029500;28;20032;-60
2022/01/12 06:34:19;;;;;;;13.27;7.18;;;-1.00;99.90;;;;;;5026146;28;20051;-59
2022/01/12 06:36:52;;;;;;;15.93;8.68;;;-0.90;99.90;;;;;;5028381;28;20498;-59
2022/01/12 06:39:22;;;;;;;;;;;-0.90;99.90;;;;;;5055677;28;20437;-59
2022/01/12 06:41:55;;;;;;;14.68;8.15;;;-0.80;99.90;;;;;;5037325;28;19913;-59
2022/01/12 06:44:26;;;;;;;16.63;9.02;;;-0.90;99.90;;;;;;5036431;28;20033;-59
2022/01/12 06:47:02;;;;;;;17.67;9.45;;;-0.80;99.90;;;;;;5028337;28;20087;-59
2022/01/12 06:49:32;;;;;;;19.15;11.02;;;-0.90;99.90;;;;;;5032303;28;20087;-59
2022/01/12 06:52:05;;;;;;;19.48;12.52;;;-0.90;99.90;;;;;;5051317;28;20028;-59
2022/01/12 06:54:34;;;;;;;20.05;11.45;;;-0.80;99.90;;;;;;5031145;28;20036;-59
2022/01/12 06:57:03;;;;;;;21.52;11.27;;;-0.80;99.90;;;;;;5028848;28;20124;-59
2022/01/12 06:59:31;;;;;;;19.23;11.05;;;-0.70;99.90;;;;;;5056191;28;20048;-59
2022/01/12 07:01:59;;;;;;;17.90;10.05;;;-0.70;99.90;;;;;;5035552;28;20627;-59
2022/01/12 07:04:35;;;;;;;19.33;9.98;;;-0.70;99.90;;;;;;5034643;28;20041;-59
2022/01/12 07:07:06;;;;;;;15.48;9.30;;;-0.70;99.90;;;;;;5033021;28;20036;-59
2022/01/12 07:09:42;;;;;;;23.45;11.98;;;-0.70;99.90;;;;;;5061350;28;20028;-59
2022/01/12 07:12:20;;;;;;;21.58;12.60;;;-0.80;99.90;;;;;;5050254;28;20028;-59
2022/01/12 07:14:50;;;;;;;22.13;11.82;;;-0.80;99.90;;;;;;5048063;28;20040;-59
2022/01/12 07:17:20;;;;;;;22.58;10.73;;;-0.70;99.90;;;;;;5038335;28;20074;-59
2022/01/12 07:19:50;;;;;;;20.90;9.98;;;-0.60;99.90;;;;;;5032687;28;20032;-59
2022/01/12 07:22:23;;;;;;;24.27;12.05;;;-0.50;99.90;;;;;;5052355;28;20025;-59
2022/01/12 07:24:50;;;;;;;24.70;12.65;;;-0.60;99.90;;;;;;5054061;28;20033;-59
2022/01/12 07:27:17;;;;;;;21.70;11.65;;;-0.60;99.90;;;;;;5046608;28;20053;-59
2022/01/12 07:29:46;;;;;;;27.13;13.32;;;-0.60;99.90;;;;;;5049896;28;20122;-60
2022/01/12 07:32:12;;;;;;;23.33;12.52;;;-0.60;99.90;;;;;;5046286;28;20501;-59
2022/01/12 07:34:39;;;;;;;21.77;11.57;;;-0.60;99.90;;;;;;5049373;28;20108;-60
2022/01/12 07:37:12;;;;;;;21.92;12.63;;;-0.60;99.90;;;;;;5046220;28;20037;-59
2022/01/12 07:39:44;;;;;;;21.17;12.10;;;-0.40;99.90;;;;;;5043987;28;20047;-60
2022/01/12 07:42:11;;;;;;;25.83;12.80;;;-0.40;99.90;;;;;;5056232;28;20043;-59
2022/01/12 07:44:43;;;;;;;22.02;11.23;;;-0.30;99.90;;;;;;5038177;28;20040;-60
2022/01/12 07:47:25;;;;;;;19.95;10.77;;;-0.30;99.90;;;;;;5061211;28;20036;-60
2022/01/12 07:50:09;;;;;;;22.45;11.73;;;-0.20;99.90;;;;;;5039369;28;20450;-59
2022/01/12 07:53:04;;;;;;;28.33;14.50;;;-0.40;99.90;;;;;;5044525;28;20104;-62
2022/01/12 07:55:42;;;;;;;28.25;13.65;;;-0.30;99.90;;;;;;5055315;28;20094;-60
2022/01/12 07:58:20;;;;;;;;;;;-0.30;99.90;;;;;;5052703;28;20049;-60
2022/01/12 08:01:04;;;;;;;28.80;13.55;;;-0.30;99.90;;;;;;5057402;28;19912;-60
2022/01/12 08:03:54;;;;;;;24.83;12.50;;;-0.30;99.90;;;;;;5038006;28;20025;-60
2022/01/12 08:06:44;;;;;;;23.42;11.30;;;-0.20;99.90;;;;;;5053520;28;20032;-60
2022/01/12 08:09:31;;;;;;;;;;;-0.40;99.90;;;;;;5055933;28;20529;-60
2022/01/12 08:12:03;;;;;;;30.60;13.60;;;-0.30;99.90;;;;;;5055681;28;19913;-60
2022/01/12 08:14:30;;;;;;;29.88;12.68;;;-0.30;99.90;;;;;;5055715;28;20091;-60
2022/01/12 08:16:59;;;;;;;32.75;15.18;;;-0.10;99.90;;;;;;5052819;28;20025;-60
2022/01/12 08:19:29;;;;;;;29.45;14.48;;;-0.20;99.90;;;;;;5053860;28;22587;-61
2022/01/12 08:21:56;;;;;;;29.88;13.27;;;-0.20;99.90;;;;;;5022507;28;20025;-61
2022/01/12 08:24:22;;;;;;;53.08;22.70;;;-0.10;99.90;;;;;;5056505;28;20025;-61
2022/01/12 08:26:48;;;;;;;42.05;20.02;;;0.00;99.90;;;;;;5053503;28;20074;-60
2022/01/12 08:29:16;;;;;;;39.75;18.67;;;0.10;99.90;;;;;;5055536;28;20029;-61
2022/01/12 08:31:44;;;;;;;42.00;18.05;;;0.20;99.90;;;;;;5076949;28;20436;-61
2022/01/12 08:34:10;;;;;;;49.42;20.83;;;0.20;99.90;;;;;;5075573;28;20107;-61
2022/01/12 08:36:42;;;;;;;37.00;17.27;;;0.20;99.90;;;;;;5071154;28;20117;-61
2022/01/12 08:39:08;;;;;;;47.70;18.07;;;0.30;99.90;;;;;;5055587;28;20036;-61
2022/01/12 08:41:36;;;;;;;45.25;19.95;;;0.40;99.90;;;;;;5053697;28;20032;-61
2022/01/12 08:44:05;;;;;;;30.55;14.73;;;0.50;99.90;;;;;;5047967;28;20036;-61
2022/01/12 08:46:35;;;;;;;31.42;14.98;;;0.60;99.90;;;;;;5056815;28;20064;-61
2022/01/12 08:49:02;;;;;;;38.83;16.87;;;0.50;99.90;;;;;;5054397;28;20036;-61
2022/01/12 08:51:28;;;;;;;32.97;17.25;;;0.60;99.90;;;;;;5054118;28;20032;-61
2022/01/12 08:53:56;;;;;;;40.85;15.75;;;0.60;99.90;;;;;;5056403;28;20144;-61
2022/01/12 08:56:25;;;;;;;30.67;15.30;;;0.60;99.90;;;;;;5061721;28;20040;-61
2022/01/12 08:58:52;;;;;;;36.05;16.45;;;0.60;99.90;;;;;;5045675;28;20117;-61
2022/01/12 09:01:19;;;;;;;33.83;16.80;;;0.70;99.90;;;;;;5051254;28;20025;-60
2022/01/12 09:03:45;;;;;;;38.92;17.38;;;0.80;99.90;;;;;;5057023;28;20047;-60
2022/01/12 09:06:11;;;;;;;38.05;18.17;;;0.90;99.90;;;;;;5051875;28;20351;-61
2022/01/12 09:08:38;;;;;;;44.47;21.77;;;1.00;99.90;;;;;;5050096;28;20052;-60
2022/01/12 09:11:05;;;;;;;38.42;19.75;;;1.00;99.90;;;;;;5053380;28;20033;-60
2022/01/12 09:13:36;;;;;;;41.25;20.52;;;1.10;99.90;;;;;;5056186;28;20032;-60
2022/01/12 09:16:06;;;;;;;34.65;18.17;;;1.10;99.90;;;;;;5054826;28;20024;-61
2022/01/12 09:18:39;;;;;;;43.33;17.83;;;1.30;99.90;;;;;;5061930;28;20549;-60
2022/01/12 09:21:11;;;;;;;33.10;16.15;;;1.30;99.90;;;;;;5055707;28;20108;-60
2022/01/12 09:23:37;;;;;;;28.80;15.45;;;1.30;99.90;;;;;;5053295;28;20478;-60
2022/01/12 09:26:06;;;;;;;34.10;15.40;;;1.00;99.90;;;;;;5055380;28;20052;-57
2022/01/12 09:28:35;;;;;;;27.10;13.93;;;1.30;99.90;;;;;;5038218;28;20088;-57
2022/01/12 09:31:01;;;;;;;37.45;16.15;;;2.50;99.90;;;;;;5055612;28;20463;-57
2022/01/12 09:33:28;;;;;;;31.83;13.77;;;4.40;99.90;;;;;;5055931;28;20043;-57
2022/01/12 09:36:00;;;;;;;35.05;14.52;;;4.40;99.70;;;;;;5058880;28;20072;-57
2022/01/12 09:38:29;;;;;;;33.10;15.23;;;6.60;96.00;;;;;;5055587;28;20025;-57
2022/01/12 09:40:56;;;;;;;30.80;14.55;;;6.90;91.30;;;;;;5054900;28;20013;-58
2022/01/12 09:43:28;;;;;;;33.72;15.90;;;7.60;91.30;;;;;;5037447;28;20021;-58
2022/01/12 09:45:54;;;;;;;34.25;14.70;;;7.80;90.40;;;;;;5054558;28;20116;-57
2022/01/12 09:48:23;;;;;;;45.33;16.45;;;7.80;81.30;;;;;;5054980;28;20044;-57
2022/01/12 09:50:53;;;;;;;28.92;15.23;;;7.70;90.90;;;;;;5056481;28;20440;-57
2022/01/12 09:53:20;;;;;;;33.28;16.45;;;7.00;82.20;;;;;;5054444;28;20029;-57
2022/01/12 09:56:36;;;;;;;33.42;14.80;;;6.30;90.10;;;;;;5064213;28;20063;-57
2022/01/12 10:03:37;;;;;;;39.38;18.70;;;4.90;95.00;;;;;;5037643;28;20105;-57
2022/01/12 10:09:34;;;;;;;41.63;21.23;;;5.20;96.30;;;;;;5036065;28;20407;-57
2022/01/12 10:12:09;;;;;;;37.97;18.65;;;5.30;96.70;;;;;;5031062;28;20029;-56
2022/01/12 10:15:03;;;;;;;47.90;24.23;;;4.80;96.00;;;;;;5032997;28;20488;-56
2022/01/12 10:17:45;;;;;;;39.92;21.25;;;4.20;98.60;;;;;;5034615;28;20036;-56
2022/01/12 10:20:21;;;;;;;44.85;22.40;;;3.30;98.90;;;;;;5040121;28;20021;-55
2022/01/12 13:22:25;;;;;;;29.40;16.38;;;2.50;99.00;;;;;;5026715;28;20044;-54
2022/01/12 13:24:53;;;;;;;29.10;15.48;;;2.30;99.70;;;;;;5048806;28;20075;-54
2022/01/12 13:27:21;;;;;;;30.00;15.95;;;2.40;99.90;;;;;;5050051;28;20021;-55
2022/01/12 13:29:49;;;;;;;33.83;17.65;;;2.50;99.90;;;;;;5056458;28;20064;-54
2022/01/12 13:32:15;;;;;;;34.75;17.25;;;2.40;99.60;;;;;;5055192;28;20029;-55
2022/01/12 13:34:53;;;;;;;42.90;21.80;;;2.20;98.40;;;;;;5034707;28;20021;-54
2022/01/12 13:37:22;;;;;;;55.75;27.23;;;2.10;99.70;;;;;;5030558;28;20116;-54
2022/01/12 13:40:10;;;;;;;40.97;21.52;;;2.10;99.90;;;;;;5036281;28;20025;-54
2022/01/12 13:42:55;;;;;;;36.25;18.48;;;2.10;99.90;;;;;;5035878;28;20025;-55
2022/01/12 13:45:26;;;;;;;35.50;18.20;;;2.10;99.90;;;;;;5036276;28;20550;-54
2022/01/12 13:47:54;;;;;;;;;;;2.00;99.90;;;;;;5036195;28;20025;-54
2022/01/12 13:50:30;;;;;;;39.47;19.45;;;2.00;99.90;;;;;;5035785;28;19952;-54
2022/01/12 13:52:56;;;;;;;32.45;16.42;;;2.20;99.70;;;;;;5030060;28;20036;-55
2022/01/12 13:55:22;;;;;;;33.05;19.27;;;2.00;99.10;;;;;;5031445;28;20541;-55
2022/01/12 14:17:55;;;;;;;37.65;18.73;;;1.20;99.90;;;;;;5024631;28;20101;-55
2022/01/12 14:20:36;;;;;;;38.80;21.40;;;1.00;99.90;;;;;;5034497;28;20033;-55
2022/01/12 14:23:08;;;;;;;39.90;22.02;;;1.10;99.90;;;;;;5035771;28;20079;-55
2022/01/12 14:25:41;;;;;;;43.67;24.35;;;1.30;99.90;;;;;;5035566;28;20478;-55
2022/01/12 14:28:10;;;;;;;41.00;21.63;;;1.20;99.90;;;;;;5034828;28;20049;-55
2022/01/12 14:30:37;;;;;;;41.33;20.17;;;1.20;99.90;;;;;;5035253;28;20036;-55
2022/01/12 14:33:05;;;;;;;33.33;18.88;;;1.10;99.90;;;;;;5034573;28;20030;-55
2022/01/12 14:35:31;;;;;;;44.67;20.65;;;1.10;99.90;;;;;;5035071;28;20564;-55
2022/01/12 14:37:58;;;;;;;45.20;23.73;;;1.10;99.90;;;;;;5034516;28;20056;-55
2022/01/12 14:40:24;;;;;;;54.90;26.20;;;1.10;99.90;;;;;;5034940;28;20079;-55
2022/01/12 14:42:53;;;;;;;49.72;27.83;;;1.20;99.90;;;;;;5034561;28;20091;-55
2022/01/12 14:45:28;;;;;;;47.97;22.92;;;1.30;99.90;;;;;;5035144;28;20124;-55
2022/01/12 14:47:57;;;;;;;43.08;22.35;;;1.00;99.90;;;;;;5034492;28;20033;-55
2022/01/12 14:50:24;;;;;;;44.75;22.05;;;0.70;99.90;;;;;;5034170;28;20037;-55
2022/01/12 14:52:51;;;;;;;49.08;24.58;;;0.70;99.90;;;;;;5034672;28;20025;-55
2022/01/12 14:55:18;;;;;;;38.90;19.40;;;0.80;99.90;;;;;;5034603;28;20083;-55
2022/01/12 14:57:44;;;;;;;44.08;21.30;;;0.60;99.90;;;;;;5034541;28;20108;-55
2022/01/12 15:00:16;;;;;;;50.53;25.42;;;0.60;99.90;;;;;;5034262;28;20121;-55
2022/01/12 15:02:45;;;;;;;205.27;83.63;;;0.60;99.90;;;;;;5034504;28;20403;-55
2022/01/12 15:05:12;;;;;;;240.80;96.82;;;0.60;99.90;;;;;;5034413;28;20091;-55
2022/01/12 15:07:38;;;;;;;283.70;106.15;;;0.70;99.90;;;;;;5034466;28;20029;-55
2022/01/12 15:10:06;;;;;;;260.58;92.43;;;0.70;99.90;;;;;;5034248;28;20395;-55
2022/01/12 15:12:37;;;;;;;80.53;31.80;;;0.60;99.90;;;;;;5033163;28;20468;-55
2022/01/12 15:15:08;;;;;;;74.05;28.75;;;0.50;99.90;;;;;;5034022;28;20438;-55
2022/01/12 15:17:35;;;;;;;60.42;24.90;;;0.40;99.90;;;;;;5032456;28;20029;-55
2022/01/12 15:20:13;;;;;;;48.92;24.00;;;0.50;99.90;;;;;;5031612;28;20049;-55
2022/01/12 15:22:44;;;;;;;43.28;20.70;;;0.40;99.90;;;;;;5034578;28;20079;-54
2022/01/12 15:25:13;;;;;;;40.08;19.25;;;0.40;99.90;;;;;;5034827;28;20032;-55
2022/01/12 15:27:39;;;;;;;37.88;19.40;;;0.40;99.90;;;;;;5034265;28;20411;-55
2022/01/12 15:30:13;;;;;;;39.58;20.13;;;0.40;99.90;;;;;;5034358;28;20060;-55
2022/01/12 15:32:40;;;;;;;39.75;20.73;;;0.20;99.90;;;;;;5045783;28;20028;-55
2022/01/12 15:35:07;;;;;;;54.28;29.00;;;0.20;99.90;;;;;;5053979;28;20021;-55
2022/01/12 15:37:34;;;;;;;49.22;27.60;;;0.20;99.90;;;;;;5054112;28;20029;-55
2022/01/12 15:40:05;;;;;;;49.03;25.25;;;0.30;99.90;;;;;;5053931;28;20025;-55
2022/01/12 15:42:35;;;;;;;51.92;24.98;;;0.20;99.90;;;;;;5053898;28;20024;-55
2022/01/12 15:45:03;;;;;;;53.97;26.17;;;0.20;99.90;;;;;;5054095;28;20087;-55
2022/01/12 15:47:29;;;;;;;53.63;25.30;;;0.20;99.90;;;;;;5053957;28;20025;-55
2022/01/12 15:49:56;;;;;;;49.60;25.52;;;0.30;99.90;;;;;;5053953;28;20032;-55
2022/01/12 15:52:22;;;;;;;39.55;20.92;;;0.20;99.90;;;;;;5053941;28;20029;-55
2022/01/12 15:54:49;;;;;;;36.35;20.77;;;0.20;99.90;;;;;;5054008;28;20029;-55
2022/01/12 15:57:20;;;;;;;33.80;18.50;;;0.30;99.90;;;;;;5053747;28;20064;-55
2022/01/12 16:00:01;;;;;;;35.17;19.30;;;0.20;99.90;;;;;;5053888;28;20029;-54
2022/01/12 16:02:31;;;;;;;;;;;0.00;99.90;;;;;;5058275;28;20044;-55
2022/01/12 16:04:57;;;;;;;32.60;17.65;;;-0.10;99.90;;;;;;5057654;28;19916;-54
2022/01/12 16:07:28;;;;;;;34.85;18.38;;;-0.10;99.90;;;;;;5057779;28;20079;-55
2022/01/12 16:09:55;;;;;;;35.45;18.30;;;-0.10;99.90;;;;;;5057705;28;20385;-55
2022/01/12 16:12:25;;;;;;;37.78;18.73;;;0.00;99.90;;;;;;5057561;28;20033;-54
2022/01/12 16:14:55;;;;;;;36.20;17.88;;;-0.10;99.90;;;;;;5057754;28;20033;-55
2022/01/12 16:17:43;;;;;;;32.35;17.20;;;-0.10;99.90;;;;;;5058466;28;20033;-55
2022/01/12 16:20:23;;;;;;;90.05;34.03;;;0.00;99.90;;;;;;5077419;28;20494;-55
2022/01/12 16:22:49;;;;;;;61.67;28.47;;;0.00;99.90;;;;;;5077482;28;20050;-55
2022/01/12 16:25:19;;;;;;;70.25;30.23;;;0.00;99.90;;;;;;5077430;28;20107;-55
2022/01/12 16:27:45;;;;;;;77.22;34.03;;;0.00;99.90;;;;;;5059529;28;20370;-55
2022/01/12 16:30:18;;;;;;;72.45;31.13;;;0.00;99.90;;;;;;5077318;28;20039;-55
2022/01/12 16:32:44;;;;;;;91.65;34.83;;;0.00;99.90;;;;;;5063354;28;20033;-55
2022/01/12 16:35:12;;;;;;;98.72;37.05;;;-0.20;99.90;;;;;;5057220;28;20240;-55
2022/01/12 16:37:38;;;;;;;131.45;44.58;;;-0.10;99.90;;;;;;5057422;28;20086;-55
2022/01/12 16:40:09;;;;;;;177.10;54.28;;;-0.10;99.90;;;;;;5056886;28;20422;-55
2022/01/12 16:42:36;;;;;;;89.15;34.65;;;-0.10;99.90;;;;;;5057166;28;20121;-54
2022/01/12 16:45:03;;;;;;;58.97;28.20;;;-0.10;99.90;;;;;;5057103;28;20071;-55
2022/01/12 16:47:35;;;;;;;55.60;27.58;;;-0.10;99.90;;;;;;5056991;28;20029;-55
2022/01/12 16:50:06;;;;;;;62.40;28.50;;;-0.10;99.90;;;;;;5057009;28;20025;-55
2022/01/12 16:52:33;;;;;;;63.10;29.17;;;-0.10;99.90;;;;;;5056842;28;20102;-55
2022/01/12 16:54:59;;;;;;;83.10;33.55;;;-0.10;99.90;;;;;;5056653;28;20112;-55
2022/01/12 16:57:28;;;;;;;106.45;43.10;;;0.00;99.90;;;;;;5056790;28;20102;-54
2022/01/12 16:59:54;;;;;;;140.82;49.65;;;0.00;99.90;;;;;;5056740;28;20056;-55
2022/01/12 17:02:23;;;;;;;114.60;42.80;;;-0.10;99.90;;;;;;5056440;28;20029;-55
2022/01/12 17:04:53;;;;;;;114.18;42.00;;;-0.10;99.90;;;;;;5056497;28;20044;-55
2022/01/12 17:07:23;;;;;;;111.88;42.40;;;0.00;99.90;;;;;;5056586;28;20104;-55
2022/01/12 17:09:50;;;;;;;113.25;41.35;;;-0.10;99.90;;;;;;5056507;28;20028;-55
2022/01/12 17:12:16;;;;;;;100.20;39.78;;;0.00;99.90;;;;;;5054950;28;20023;-55
2022/01/12 17:14:42;;;;;;;86.68;36.08;;;-0.10;99.90;;;;;;5056391;28;20025;-55
2022/01/12 17:17:17;;;;;;;96.57;38.50;;;-0.10;99.90;;;;;;5056530;28;20102;-55
2022/01/12 17:19:43;;;;;;;105.75;42.78;;;-0.10;99.90;;;;;;5061032;28;20142;-55
2022/01/12 17:22:11;;;;;;;96.88;41.03;;;-0.10;99.90;;;;;;5056067;28;20029;-55
2022/01/12 17:25:04;;;;;;;98.13;41.45;;;-0.10;99.90;;;;;;5056354;28;20422;-55
2022/01/12 17:27:30;;;;;;;116.15;47.35;;;-0.10;99.90;;;;;;5054946;28;20060;-55
2022/01/12 17:29:57;;;;;;;107.15;44.95;;;0.00;99.90;;;;;;5056093;28;20061;-55
2022/01/12 17:32:27;;;;;;;113.50;47.80;;;0.00;99.90;;;;;;5046412;28;20502;-55
2022/01/12 17:34:52;;;;;;;115.00;48.57;;;0.00;99.90;;;;;;5036342;28;20371;-55
2022/01/12 17:37:19;;;;;;;116.35;47.65;;;-0.10;99.90;;;;;;5036016;28;20038;-55
2022/01/12 17:39:46;;;;;;;124.63;51.42;;;0.00;99.90;;;;;;5035868;28;20040;-55
2022/01/12 17:42:19;;;;;;;123.75;49.47;;;-0.10;99.90;;;;;;5036141;28;20025;-55